createdAt,value
2022-08-11T00:22:52.804Z,55.61
2022-08-11T00:25:22.131Z,55.84
2022-08-11T00:28:23.751Z,55.65
2022-08-11T00:30:57.755Z,56.29
2022-08-11T00:37:21.761Z,56.50
2022-08-11T00:39:53.218Z,56.87
2022-08-11T00:43:10.588Z,57.58
2022-08-11T00:45:56.546Z,57.20
2022-08-11T00:48:36.580Z,57.82
2022-08-11T00:51:20.622Z,58.05
2022-08-11T00:54:06.679Z,57.82
2022-08-11T00:57:09.218Z,58.80
2022-08-11T01:01:09.778Z,60.12
2022-08-11T01:03:43.071Z,60.74
2022-08-11T01:10:44.807Z,61.83
2022-08-11T01:13:33.380Z,59.73
2022-08-11T01:16:57.923Z,60.03
2022-08-11T01:20:45.645Z,60.03
2022-08-11T01:22:55.866Z,62.87
2022-08-11T01:25:56.721Z,64.42
2022-08-11T01:32:15.868Z,63.43
2022-08-11T01:35:30.513Z,63.81
2022-08-11T01:38:35.399Z,62.07
2022-08-11T07:59:09.794Z,25.40
2022-08-11T08:01:57.030Z,27.37
2022-08-11T08:04:47.242Z,27.97
2022-08-11T08:07:40.106Z,28.03
2022-08-11T08:10:28.507Z,27.68
2022-08-11T08:13:16.664Z,28.08
2022-08-11T08:16:03.764Z,28.21
2022-08-11T08:18:36.166Z,25.88
2022-08-11T08:21:15.744Z,26.45
2022-08-11T08:23:46.598Z,26.40
2022-08-11T08:26:34.756Z,27.53
2022-08-11T08:33:11.742Z,26.97
2022-08-11T08:35:54.749Z,27.13
2022-08-11T08:41:40.735Z,25.01
2022-08-11T08:47:02.963Z,25.04
2022-08-11T08:49:40.276Z,25.29
2022-08-11T08:52:30.588Z,23.71
2022-08-11T08:55:20.235Z,21.27
2022-08-11T08:57:50.444Z,23.58
2022-08-11T09:00:23.059Z,22.88
2022-08-11T09:02:52.027Z,21.33
2022-08-11T09:05:37.975Z,19.81
2022-08-11T09:08:52.415Z,21.07
2022-08-11T09:30:55.589Z,24.08
2022-08-11T09:39:22.152Z,23.42
2022-08-11T09:42:44.509Z,22.54
2022-08-11T09:50:02.519Z,22.72
2022-08-11T09:53:36.043Z,21.13
2022-08-11T10:28:36.455Z,27.74
2022-08-11T10:36:18.436Z,29.31
2022-08-11T10:44:55.788Z,27.66
2022-08-11T10:48:28.507Z,28.48
2022-08-11T10:52:04.455Z,26.26
2022-08-11T11:19:21.705Z,28.71
2022-08-11T11:35:16.322Z,35.31
2022-08-11T11:38:33.369Z,31.14
2022-08-11T11:42:12.097Z,34.91
2022-08-11T11:44:56.187Z,35.73
2022-08-11T11:47:33.551Z,32.47
2022-08-11T14:07:40.110Z,29.79
2022-08-11T14:12:23.262Z,29.66
2022-08-11T14:15:32.482Z,30.29
2022-08-11T14:18:47.063Z,30.44
2022-08-11T14:22:10.066Z,30.38
2022-08-11T14:24:53.717Z,29.78
2022-08-11T14:28:32.155Z,30.03
2022-08-11T14:59:27.088Z,31.80
2022-08-11T15:02:15.904Z,31.77
2022-08-11T15:04:58.048Z,30.84
2022-08-11T15:08:00.284Z,30.14
2022-08-11T15:10:35.697Z,30.71
2022-08-11T15:13:04.193Z,30.12
2022-08-11T15:15:57.076Z,29.89
2022-08-11T15:19:27.353Z,30.44
2022-08-11T15:27:46.396Z,31.00
2022-08-11T15:30:10.385Z,30.28
2022-08-11T15:38:45.502Z,30.18
2022-08-11T15:43:15.492Z,30.13
2022-08-11T16:02:45.375Z,30.46
2022-08-11T16:10:16.394Z,30.02
2022-08-11T16:13:24.483Z,30.11
2022-08-11T16:43:10.695Z,30.46
2022-08-11T16:46:26.327Z,31.18
2022-08-11T16:49:52.838Z,31.38
2022-08-11T16:53:17.450Z,30.40
2022-08-11T16:57:18.591Z,30.53
2022-08-11T17:00:35.729Z,29.60
2022-08-11T17:04:31.228Z,30.13
2022-08-11T17:08:56.955Z,30.88
2022-08-11T17:11:54.610Z,30.75
2022-08-11T17:15:02.554Z,30.66
2022-08-11T17:17:38.067Z,30.13
2022-08-11T17:20:39.630Z,31.97
2022-08-11T17:23:24.205Z,32.20
2022-08-11T17:26:03.981Z,32.33
2022-08-11T17:28:35.066Z,33.23
2022-08-11T17:31:23.356Z,33.69
2022-08-11T17:34:11.120Z,35.69
2022-08-11T17:36:45.088Z,35.80
2022-08-11T17:39:15.526Z,33.39
2022-08-11T17:42:05.369Z,33.89
2022-08-11T17:44:52.690Z,35.10
2022-08-11T17:47:39.632Z,35.19
2022-08-11T17:50:09.274Z,34.03
2022-08-11T17:53:05.300Z,36.86
2022-08-11T17:55:53.898Z,35.87
2022-08-11T17:58:41.732Z,34.35
2022-08-11T18:01:11.802Z,34.37
2022-08-11T18:03:41.555Z,34.52
2022-08-11T18:06:14.186Z,34.46
2022-08-11T18:09:04.818Z,36.37
2022-08-11T18:12:09.959Z,35.10
2022-08-11T18:15:02.638Z,35.46
2022-08-11T18:17:49.642Z,37.38
2022-08-11T18:20:39.543Z,37.37
2022-08-11T18:23:41.861Z,36.49
2022-08-11T18:26:38.088Z,40.15
2022-08-11T18:29:26.844Z,37.90
2022-08-11T18:32:21.138Z,36.72
2022-08-11T18:35:12.488Z,37.16
2022-08-11T18:38:05.748Z,38.97
2022-08-11T18:40:54.284Z,38.73
2022-08-11T18:43:43.174Z,39.44
2022-08-11T18:46:33.935Z,38.90
2022-08-11T18:49:35.480Z,41.96
2022-08-11T18:52:36.544Z,39.25
2022-08-11T18:55:28.320Z,41.39
2022-08-11T18:58:16.675Z,41.37
2022-08-11T19:01:05.038Z,41.44
2022-08-11T19:03:54.393Z,42.00
2022-08-11T19:06:42.511Z,42.59
2022-08-11T19:09:31.644Z,43.55
2022-08-11T19:12:20.363Z,43.62
2022-08-11T19:15:09.210Z,45.92
2022-08-11T19:17:59.103Z,44.10
2022-08-11T19:20:48.478Z,39.76
2022-08-11T19:23:39.702Z,44.36
2022-08-11T19:26:26.982Z,44.88
2022-08-11T19:30:07.889Z,45.85
2022-08-11T19:32:21.787Z,44.33
2022-08-11T19:35:09.208Z,46.48
2022-08-11T19:37:58.007Z,45.89
2022-08-11T19:40:45.029Z,46.18
2022-08-11T19:43:32.292Z,44.07
2022-08-11T19:46:20.532Z,40.53
2022-08-11T19:49:12.393Z,38.97
2022-08-11T19:51:59.143Z,41.86
2022-08-11T19:54:48.763Z,42.84
2022-08-11T19:57:39.870Z,44.81
2022-08-11T20:00:37.386Z,43.00
2022-08-11T20:03:27.130Z,43.24
2022-08-11T20:06:19.286Z,42.73
2022-08-11T20:09:10.479Z,43.67
2022-08-11T20:12:02.182Z,42.17
2022-08-11T20:14:52.847Z,42.78
2022-08-11T20:17:44.050Z,42.46
2022-08-11T20:20:33.319Z,42.17
2022-08-11T20:23:23.257Z,42.65
2022-08-11T20:29:18.770Z,43.25
2022-08-11T20:32:09.736Z,42.73
2022-08-11T20:34:58.912Z,42.71
2022-08-11T20:37:50.845Z,44.11
2022-08-11T20:40:41.093Z,42.98
2022-08-11T20:44:07.706Z,44.67
2022-08-11T20:46:38.461Z,42.55
2022-08-11T20:49:44.907Z,42.29
2022-08-11T20:52:37.662Z,43.83
2022-08-11T20:55:51.775Z,46.33
2022-08-11T20:59:10.994Z,44.77
2022-08-11T21:01:44.162Z,46.52
2022-08-11T21:04:30.520Z,45.85
2022-08-11T21:07:28.239Z,46.50
2022-08-11T21:10:23.795Z,47.99
2022-08-11T21:13:24.253Z,47.76
2022-08-11T21:16:26.486Z,48.93
2022-08-11T21:19:19.213Z,47.60
2022-08-11T21:22:28.121Z,46.89
2022-08-11T21:25:17.248Z,44.91
2022-08-11T21:28:05.528Z,43.69
2022-08-11T21:30:57.702Z,43.68
2022-08-11T21:33:46.770Z,43.54
2022-08-11T21:36:33.588Z,44.25
2022-08-11T21:39:25.095Z,43.83
2022-08-11T21:42:16.228Z,43.54
2022-08-11T21:45:07.480Z,44.80
2022-08-11T21:48:00.798Z,42.86
2022-08-11T21:50:48.240Z,46.36
2022-08-11T21:53:34.858Z,47.54
2022-08-11T21:56:25.549Z,48.02
2022-08-11T21:59:15.882Z,48.92
2022-08-11T22:02:03.722Z,58.82
2022-08-11T22:04:50.697Z,62.12
2022-08-11T22:07:41.114Z,72.28
2022-08-11T22:10:42.187Z,86.34
2022-08-11T22:13:31.698Z,84.56
2022-08-11T22:16:19.331Z,84.21
2022-08-11T22:19:08.838Z,89.32
2022-08-11T22:22:02.570Z,92.46
2022-08-11T22:24:51.965Z,100.00
2022-08-11T22:27:39.752Z,100.00
2022-08-11T22:30:27.607Z,100.00
2022-08-11T22:33:16.424Z,100.00
2022-08-11T22:36:05.763Z,100.00
2022-08-11T22:38:53.793Z,100.00
2022-08-11T22:41:41.574Z,100.00
2022-08-11T22:44:28.543Z,100.00
2022-08-11T22:47:21.525Z,100.00
2022-08-11T22:50:14.630Z,100.00
2022-08-11T22:53:02.624Z,100.00
2022-08-11T22:55:49.844Z,100.00
2022-08-11T22:58:39.558Z,100.00
2022-08-11T23:01:25.916Z,100.00
2022-08-11T23:04:12.842Z,100.00
2022-08-11T23:07:01.424Z,100.00
2022-08-11T23:09:48.366Z,100.00
2022-08-11T23:12:34.714Z,100.00
2022-08-11T23:15:21.512Z,100.00
2022-08-11T23:18:07.823Z,100.00
2022-08-11T23:20:55.785Z,100.00
2022-08-11T23:23:46.974Z,100.00
2022-08-11T23:26:36.922Z,100.00
2022-08-11T23:29:25.237Z,100.00
2022-08-11T23:32:12.616Z,100.00
2022-08-11T23:35:40.451Z,100.00
2022-08-11T23:38:09.431Z,100.00
2022-08-11T23:40:57.376Z,100.00
2022-08-11T23:43:43.651Z,100.00
2022-08-11T23:46:29.979Z,100.00
2022-08-11T23:49:20.953Z,100.00
2022-08-11T23:52:08.563Z,100.00
2022-08-11T23:54:54.864Z,100.00
2022-08-11T23:57:47.806Z,100.00
